Klamath Falls Airport
KLMT : now visible

Airfield :











YOU CAN JOIN US ON...

 
LOGIN :

Register | Disclaimer

   EN    FR    IT 

 









Legend :    VFR   Marginal VFR   IFR   Intensive IFR   Very Intensive IFR
Visi :
Ceiling :
>= 8 km
>= 3000ft
5 to 8 km
1000 to 3000 ft
1500m to 5 km
500 to 1000 ft
800 to 1500m
200 to 500 ft
< 800m
< 200 ft
Symbols :   Thunderstorms  Fog  Heavy snow  Heavy precipitations  Wind > 20 kt







- Airport Elevation : 4095 ft
- IATA code : LMT


KLMT - Klamath Falls

CURRENT METAR :
  • 162053Z COR 32008KT 10SM FEW028 SCT036 BKN055 12/06 A2991 RMK AO2 RAE23 SLP110 P0000 60009 T01220056 51005

EXPIRED METARs :
  • 161953Z 32003KT 7SM R32/5000VP6000FT RA FEW025 SCT035 BKN042 09/05 A2991 RMK AO2 SLP112 P0003 T00890050
  • 161933Z 04007KT 10SM -RA FEW025 SCT034 BKN044 10/06 A2990 RMK AO2 P0000 T01000061
  • 161908Z 02005KT 10SM -RA BKN027 OVC034 10/06 A2990 RMK AO2 P0000 T01000056
  • 161900Z VRB04KT 10SM -RA SCT025 OVC030 09/06 A2990 RMK AO2 P0000 T00940056

TAF KLMT
Valid from the 16 at 18:00 until the 17 at 18:00 UTC


161744Z 1618/1718 31008KT P6SM -SHRA BKN035 OVC050
FM162100 28010KT P6SM VCSH BKN050
FM170400 VRB03KT P6SM BKN050
FM171200 00000KT P6SM FEW008 BKN020 OVC040
FM171600 18010KT P6SM SCT020 BKN050
No reported NOTAMs for that airfield.



MET'MAP, your aeronautical weather chart ! - Copyright ORBIFLY December 2007 - Disclaimer

ORBIFLY MET'MAP TEAM :

Programming & Development : Alexandra Zaïnal
Concept & Development : Baudouin d'Aumeries
Co-Development & Prog : Marc-Olivier Méhu
Technical & hardware support : Manuel Goepfert

Contact : metmap@orbifly.com




SOURCES & CREDITS :

   NOAA       Earth
Advisory